Time;durP1;ratioP1;P1;durP2;ratioP2;P2;SDS_P1;SDS_P2;PMS_P1;PMS_P2;Temp;Humidity;BMP_temperature;BMP_pressure;BME280_temperature;BME280_humidity;BME280_pressure;Samples;Min_cycle;Max_cycle;Signal;HPM_P1;HPM_P2
2022/11/22 00:00:38;;;;;;;346.75;32.92;;;1.30;99.90;;;;;;5088659;28;19916;-76
2022/11/22 00:03:04;;;;;;;346.75;31.25;;;1.30;99.90;;;;;;5088533;28;20032;-75
2022/11/22 00:05:29;;;;;;;;;;;1.30;99.90;;;;;;5089058;28;20042;-75
2022/11/22 00:07:55;;;;;;;253.75;32.03;;;1.20;99.90;;;;;;5087538;28;19919;-75
2022/11/22 00:10:20;;;;;;;;;;;1.20;99.90;;;;;;5087541;28;20119;-74
2022/11/22 00:12:46;;;;;;;282.50;32.85;;;1.10;99.90;;;;;;5086947;28;19952;-75
2022/11/22 00:15:12;;;;;;;;;;;1.10;99.90;;;;;;5090293;28;20035;-75
2022/11/22 00:17:38;;;;;;;409.98;38.17;;;1.10;99.90;;;;;;5089659;28;19930;-75
2022/11/22 00:20:04;;;;;;;;;;;1.10;99.90;;;;;;5088473;28;20085;-75
2022/11/22 00:22:31;;;;;;;332.17;34.28;;;1.10;99.90;;;;;;5088824;28;19914;-76
2022/11/22 00:24:56;;;;;;;450.92;35.55;;;1.10;99.90;;;;;;5088012;28;20043;-75
2022/11/22 00:27:22;;;;;;;;;;;1.10;99.90;;;;;;5087169;28;20020;-75
2022/11/22 00:29:48;;;;;;;257.45;33.33;;;1.10;99.90;;;;;;5089405;28;19951;-75
2022/11/22 00:32:13;;;;;;;;;;;1.00;99.90;;;;;;5089148;28;20121;-75
2022/11/22 00:34:39;;;;;;;231.02;31.10;;;1.00;99.90;;;;;;5090091;28;19926;-74
2022/11/22 00:37:04;;;;;;;;;;;1.00;99.90;;;;;;5090042;28;20044;-76
2022/11/22 00:39:30;;;;;;;169.88;26.77;;;1.10;99.90;;;;;;5089272;28;19922;-75
2022/11/22 00:41:56;;;;;;;;;;;1.00;99.90;;;;;;5091183;28;20115;-76
2022/11/22 00:44:21;;;;;;;162.98;27.58;;;1.00;99.90;;;;;;5090313;28;19904;-76
2022/11/22 00:46:47;;;;;;;;;;;0.90;99.90;;;;;;5088183;28;20032;-75
2022/11/22 00:49:13;;;;;;;127.35;25.60;;;0.90;99.90;;;;;;5085785;28;19908;-76
2022/11/22 00:51:39;;;;;;;;;;;0.80;99.90;;;;;;5087813;28;20265;-76
2022/11/22 00:54:05;;;;;;;85.60;26.13;;;0.80;99.90;;;;;;5085923;28;19908;-76
2022/11/22 00:56:30;;;;;;;;;;;0.80;99.90;;;;;;5085456;28;20720;-76
2022/11/22 00:58:56;;;;;;;98.85;25.48;;;0.70;99.90;;;;;;5087071;28;19915;-75
2022/11/22 01:01:22;;;;;;;;;;;0.70;99.90;;;;;;5087231;28;20078;-76
2022/11/22 01:03:47;;;;;;;98.25;22.92;;;0.70;99.90;;;;;;5087079;28;20319;-76
2022/11/22 01:06:13;;;;;;;;;;;0.70;99.90;;;;;;5087629;28;20028;-76
2022/11/22 01:08:38;;;;;;;105.78;22.30;;;0.60;99.90;;;;;;5085947;28;19950;-76
2022/11/22 01:11:04;;;;;;;;;;;0.60;99.90;;;;;;5086059;28;20028;-76
2022/11/22 01:13:29;;;;;;;192.63;21.77;;;0.60;99.90;;;;;;5085417;28;20269;-76
2022/11/22 01:16:02;;;;;;;;;;;0.60;99.90;;;;;;5085879;28;20072;-76
2022/11/22 01:18:28;;;;;;;113.63;20.50;;;0.50;99.90;;;;;;5086222;28;20257;-76
2022/11/22 01:20:53;;;;;;;;;;;0.40;99.90;;;;;;5087218;28;20131;-76
2022/11/22 01:23:19;;;;;;;74.57;15.85;;;0.30;99.90;;;;;;5085180;28;19947;-76
2022/11/22 01:25:44;;;;;;;;;;;0.20;99.90;;;;;;5086064;28;20032;-75
2022/11/22 01:28:11;;;;;;;40.05;15.60;;;0.20;99.90;;;;;;5084779;28;20391;-76
2022/11/22 01:30:37;;;;;;;67.57;19.27;;;0.20;99.90;;;;;;5085332;28;20028;-76
2022/11/22 01:33:02;;;;;;;;;;;0.20;99.90;;;;;;5086621;28;20035;-76
2022/11/22 01:35:28;;;;;;;52.92;21.35;;;0.10;99.90;;;;;;5085657;28;19914;-76
2022/11/22 01:37:53;;;;;;;;;;;0.00;99.90;;;;;;5087960;28;20039;-75
2022/11/22 01:40:19;;;;;;;54.75;25.15;;;0.00;99.90;;;;;;5090735;28;19919;-75
2022/11/22 01:42:47;;;;;;;;;;;0.00;99.90;;;;;;5090318;28;20061;-76
2022/11/22 01:45:31;;;;;;;67.72;26.58;;;0.00;99.90;;;;;;5089677;28;20056;-76
2022/11/22 01:48:01;;;;;;;57.55;23.95;;;-0.10;99.90;;;;;;5090764;28;20025;-76
2022/11/22 01:50:28;;;;;;;59.83;25.13;;;-0.10;99.90;;;;;;5090522;28;20067;-75
2022/11/22 01:52:58;;;;;;;59.95;24.45;;;-0.10;99.90;;;;;;5088976;28;20024;-76
2022/11/22 01:55:24;;;;;;;40.90;21.42;;;-0.10;99.90;;;;;;5091447;28;20648;-76
2022/11/22 01:57:49;;;;;;;;;;;-0.20;99.90;;;;;;5089469;28;20135;-76
2022/11/22 02:00:16;;;;;;;31.58;16.65;;;-0.20;99.90;;;;;;5091050;28;19955;-76
2022/11/22 02:02:48;;;;;;;35.28;16.95;;;-0.20;99.90;;;;;;5089660;28;20047;-74
2022/11/22 02:05:18;;;;;;;37.63;17.88;;;-0.20;99.90;;;;;;5090642;28;20028;-76
2022/11/22 02:08:02;;;;;;;34.22;18.50;;;-0.20;99.90;;;;;;5089179;28;20124;-75
2022/11/22 02:10:33;;;;;;;38.60;19.80;;;-0.20;99.90;;;;;;5089088;28;20187;-76
2022/11/22 02:12:59;;;;;;;37.90;19.60;;;-0.20;99.90;;;;;;5089604;28;20674;-75
2022/11/22 02:15:25;;;;;;;38.97;18.65;;;-0.20;99.90;;;;;;5089256;28;20032;-75
2022/11/22 02:17:50;;;;;;;;;;;-0.20;99.90;;;;;;5090272;28;20105;-75
2022/11/22 02:20:16;;;;;;;39.42;18.52;;;-0.20;99.90;;;;;;5089043;28;19916;-76
2022/11/22 02:23:15;;;;;;;36.22;17.20;;;-0.20;99.90;;;;;;5089757;28;20024;-76
2022/11/22 02:25:57;;;;;;;37.13;18.83;;;-0.20;99.90;;;;;;5090974;28;20051;-76
2022/11/22 02:28:25;;;;;;;29.88;16.63;;;-0.20;99.90;;;;;;5090517;28;20020;-76
2022/11/22 02:30:51;;;;;;;39.25;19.25;;;-0.20;99.90;;;;;;5091079;28;20503;-76
2022/11/22 02:33:16;;;;;;;;;;;-0.30;99.90;;;;;;5091686;28;20032;-76
2022/11/22 02:35:43;;;;;;;34.47;17.50;;;-0.20;99.90;;;;;;5091099;28;20457;-76
2022/11/22 02:38:21;;;;;;;44.65;20.85;;;-0.20;99.90;;;;;;5089675;28;20021;-76
2022/11/22 02:41:09;;;;;;;42.55;19.75;;;-0.20;99.90;;;;;;5088682;28;20079;-76
2022/11/22 02:43:38;;;;;;;50.75;23.17;;;-0.20;99.90;;;;;;5089315;28;20212;-77
2022/11/22 02:46:06;;;;;;;82.93;26.20;;;-0.10;99.90;;;;;;5091117;28;20077;-75
2022/11/22 02:48:32;;;;;;;73.30;24.75;;;-0.10;99.90;;;;;;5088907;28;20435;-76
2022/11/22 02:50:58;;;;;;;;;;;-0.10;99.90;;;;;;5090214;28;20020;-76
2022/11/22 02:53:23;;;;;;;72.75;23.65;;;0.00;99.90;;;;;;5090565;28;19908;-77
2022/11/22 02:55:49;;;;;;;;;;;0.00;99.90;;;;;;5090449;28;20034;-76
2022/11/22 02:58:15;;;;;;;92.57;29.45;;;0.00;99.90;;;;;;5091317;28;20015;-76
2022/11/22 03:00:40;;;;;;;;;;;0.10;99.90;;;;;;5092741;28;20036;-77
2022/11/22 03:03:06;;;;;;;299.77;35.42;;;0.20;99.90;;;;;;5092564;28;20338;-77
2022/11/22 03:05:31;;;;;;;;;;;0.20;99.90;;;;;;5092138;28;20028;-77
2022/11/22 03:07:57;;;;;;;233.57;29.40;;;0.30;99.90;;;;;;5090952;28;19926;-77
2022/11/22 03:10:22;;;;;;;;;;;0.30;99.90;;;;;;5086103;28;20032;-77
2022/11/22 03:12:48;;;;;;;220.95;31.38;;;0.30;99.90;;;;;;5063620;28;19912;-76
2022/11/22 03:15:14;;;;;;;;;;;0.40;99.90;;;;;;5067236;28;20123;-77
2022/11/22 03:17:39;;;;;;;232.63;27.55;;;0.50;99.90;;;;;;5066495;28;19962;-76
2022/11/22 03:20:05;;;;;;;;;;;0.50;99.90;;;;;;5067655;28;20041;-76
2022/11/22 03:22:31;;;;;;;190.07;21.83;;;0.60;99.90;;;;;;5067962;28;19916;-76
2022/11/22 03:24:56;;;;;;;;;;;0.60;99.90;;;;;;5067286;28;20052;-76
2022/11/22 03:27:22;;;;;;;278.48;26.00;;;0.70;99.90;;;;;;5066447;28;20492;-77
2022/11/22 03:29:47;;;;;;;;;;;0.60;99.90;;;;;;5067314;28;20602;-76
2022/11/22 03:32:13;;;;;;;85.30;18.88;;;0.60;99.90;;;;;;5067106;28;19908;-76
2022/11/22 03:34:38;;;;;;;;;;;0.50;99.90;;;;;;5068187;28;20531;-76
2022/11/22 03:37:04;;;;;;;35.00;13.93;;;0.50;99.90;;;;;;5067943;28;19962;-77
2022/11/22 03:39:31;;;;;;;;;;;0.50;99.90;;;;;;5068583;28;20049;-76
2022/11/22 03:41:57;;;;;;;65.65;18.75;;;0.40;99.90;;;;;;5065586;28;19928;-75
2022/11/22 03:44:23;;;;;;;106.25;18.30;;;0.40;99.90;;;;;;5068184;28;20093;-75
2022/11/22 03:46:48;;;;;;;;;;;0.40;99.90;;;;;;5067294;28;20028;-76
2022/11/22 03:49:14;;;;;;;105.30;23.30;;;0.30;99.90;;;;;;5068301;28;20536;-76
2022/11/22 03:51:39;;;;;;;89.05;23.05;;;0.30;99.90;;;;;;5066622;28;20036;-76
2022/11/22 03:54:05;;;;;;;;;;;0.30;99.90;;;;;;5068801;28;20108;-76
2022/11/22 03:56:30;;;;;;;187.68;24.05;;;0.30;99.90;;;;;;5066244;28;20041;-76
2022/11/22 03:58:56;;;;;;;;;;;0.30;99.90;;;;;;5067186;28;20025;-76
2022/11/22 04:01:22;;;;;;;41.95;16.55;;;0.30;99.90;;;;;;5066837;28;20406;-76
2022/11/22 04:03:47;;;;;;;;;;;0.30;99.90;;;;;;5067111;28;20658;-76
2022/11/22 04:06:13;;;;;;;39.75;18.50;;;0.30;99.90;;;;;;5067011;28;19909;-76
2022/11/22 04:08:39;;;;;;;;;;;0.30;99.90;;;;;;5067195;28;20079;-75
2022/11/22 04:11:04;;;;;;;48.33;20.67;;;0.20;99.90;;;;;;5067589;28;19933;-76
2022/11/22 04:16:14;;;;;;;41.83;17.63;;;0.20;99.90;;;;;;5067994;28;20392;-76
2022/11/22 04:18:39;;;;;;;;;;;0.30;99.90;;;;;;5068349;28;20096;-76
2022/11/22 04:25:12;;;;;;;47.50;18.95;;;0.40;99.90;;;;;;5068746;28;20051;-75
2022/11/22 04:26:35;;;;;;;47.15;20.05;;;0.50;99.90;;;;;;5068158;28;20032;-75
2022/11/22 04:29:00;;;;;;;;;;;0.70;99.90;;;;;;5068805;28;20024;-76
2022/11/22 04:34:10;;;;;;;66.07;30.05;;;1.00;99.90;;;;;;5068695;28;20040;-76
2022/11/22 04:36:36;;;;;;;;;;;1.10;99.90;;;;;;5067363;28;20320;-76
2022/11/22 04:39:01;;;;;;;58.95;22.77;;;1.50;99.90;;;;;;5065130;28;19908;-76
2022/11/22 04:41:27;;;;;;;;;;;1.70;99.90;;;;;;5066125;28;20567;-76
2022/11/22 04:46:37;;;;;;;90.90;17.00;;;2.00;99.90;;;;;;5068184;28;20537;-77
2022/11/22 04:49:03;;;;;;;;;;;2.10;99.90;;;;;;5069284;28;20025;-76
2022/11/22 04:54:12;;;;;;;213.00;20.48;;;2.20;99.90;;;;;;5068639;28;20504;-76
2022/11/22 04:56:38;;;;;;;;;;;2.30;99.90;;;;;;5067329;28;20052;-76
2022/11/22 04:59:04;;;;;;;332.70;24.80;;;2.30;99.90;;;;;;5068547;28;19908;-76
2022/11/22 05:01:29;;;;;;;;;;;2.30;99.90;;;;;;5067758;28;20284;-77
2022/11/22 05:03:55;;;;;;;221.93;22.38;;;2.30;99.90;;;;;;5067440;28;19934;-77
2022/11/22 05:06:20;;;;;;;;;;;2.20;99.90;;;;;;5068099;28;20028;-76
2022/11/22 05:08:46;;;;;;;98.13;19.30;;;2.30;99.90;;;;;;5067181;28;19909;-76
2022/11/22 05:11:11;;;;;;;;;;;2.30;99.90;;;;;;5068020;28;20029;-77
2022/11/22 05:13:39;;;;;;;158.40;22.02;;;2.30;99.90;;;;;;5070641;28;19972;-76
2022/11/22 05:16:07;;;;;;;184.07;25.65;;;2.40;99.90;;;;;;5072170;28;20032;-76
2022/11/22 05:18:33;;;;;;;295.42;24.23;;;2.60;99.90;;;;;;5072929;28;20768;-76
2022/11/22 05:21:02;;;;;;;;;;;2.50;99.90;;;;;;5072995;28;20051;-77
2022/11/22 05:26:12;;;;;;;133.57;23.55;;;2.50;99.90;;;;;;5072563;28;20078;-77
2022/11/22 05:28:38;;;;;;;;;;;2.60;99.90;;;;;;5072054;28;20029;-77
2022/11/22 05:31:15;;;;;;;78.65;18.50;;;2.60;99.90;;;;;;5073479;28;19908;-76
2022/11/22 05:33:43;;;;;;;99.80;18.58;;;2.80;99.90;;;;;;5070249;28;20060;-76
2022/11/22 05:36:09;;;;;;;103.05;20.65;;;2.80;99.90;;;;;;5069027;28;20475;-76
2022/11/22 05:38:38;;;;;;;103.05;22.00;;;2.80;99.90;;;;;;5069973;28;20021;-76
2022/11/22 05:41:07;;;;;;;144.90;20.45;;;2.80;99.90;;;;;;5069414;28;20495;-75
2022/11/22 05:43:33;;;;;;;61.08;19.23;;;2.80;99.90;;;;;;5068448;28;20035;-76
2022/11/22 05:46:12;;;;;;;;;;;2.80;99.90;;;;;;5069334;28;20028;-76
2022/11/22 05:48:39;;;;;;;68.07;19.98;;;2.80;99.90;;;;;;5068275;28;19961;-77
2022/11/22 05:51:08;;;;;;;81.18;20.83;;;2.80;99.90;;;;;;5068383;28;20051;-76
2022/11/22 05:53:35;;;;;;;67.57;19.92;;;2.80;99.90;;;;;;5068957;28;20370;-76
2022/11/22 05:56:08;;;;;;;40.20;15.30;;;2.90;99.90;;;;;;5069554;28;20029;-76
2022/11/22 05:58:35;;;;;;;48.25;17.30;;;3.00;99.90;;;;;;5070283;28;20021;-76
2022/11/22 06:01:06;;;;;;;57.10;19.02;;;3.10;99.90;;;;;;5069732;28;20047;-75
2022/11/22 06:03:32;;;;;;;62.88;18.45;;;3.00;99.90;;;;;;5070537;28;20021;-75
2022/11/22 06:05:57;;;;;;;;;;;3.10;99.90;;;;;;5070218;28;20028;-76
2022/11/22 06:08:23;;;;;;;45.88;16.42;;;3.00;99.90;;;;;;5070129;28;19952;-76
2022/11/22 06:10:48;;;;;;;;;;;3.00;99.90;;;;;;5069722;28;20592;-75
2022/11/22 06:13:14;;;;;;;59.60;18.25;;;3.00;99.90;;;;;;5069482;28;19908;-76
2022/11/22 06:15:39;;;;;;;;;;;3.00;99.90;;;;;;5068938;28;20027;-76
2022/11/22 06:18:05;;;;;;;80.72;20.92;;;3.00;99.90;;;;;;5070465;28;20336;-75
2022/11/22 06:20:30;;;;;;;;;;;2.90;99.90;;;;;;5071365;28;20037;-76
2022/11/22 06:22:59;;;;;;;62.47;19.27;;;2.90;99.90;;;;;;5068851;28;19908;-76
2022/11/22 06:25:25;;;;;;;56.08;20.80;;;2.90;99.90;;;;;;5069325;28;20489;-76
2022/11/22 06:27:50;;;;;;;;;;;2.90;99.90;;;;;;5069160;28;20035;-76
2022/11/22 06:30:16;;;;;;;62.95;21.50;;;3.00;99.90;;;;;;5068884;28;19904;-75
2022/11/22 06:32:41;;;;;;;;;;;3.00;99.90;;;;;;5069640;28;20458;-75
2022/11/22 06:35:07;;;;;;;60.22;18.80;;;3.00;99.90;;;;;;5068381;28;20174;-77
2022/11/22 06:37:33;;;;;;;;;;;3.10;99.90;;;;;;5068712;28;20096;-75
2022/11/22 06:39:58;;;;;;;34.72;15.68;;;3.10;99.90;;;;;;5069069;28;19927;-75
2022/11/22 06:42:24;;;;;;;;;;;3.10;99.90;;;;;;5068495;28;20111;-75
2022/11/22 06:44:50;;;;;;;48.70;19.80;;;3.10;99.90;;;;;;5069108;28;19913;-75
2022/11/22 06:47:16;;;;;;;;;;;3.10;99.90;;;;;;5070171;28;20051;-76
2022/11/22 06:49:43;;;;;;;91.25;24.90;;;3.00;99.90;;;;;;5068903;28;19904;-76
2022/11/22 06:52:08;;;;;;;61.80;19.40;;;3.10;99.90;;;;;;5068276;28;20504;-76
2022/11/22 06:54:34;;;;;;;;;;;3.00;99.90;;;;;;5068752;28;20029;-76
2022/11/22 06:56:59;;;;;;;42.20;17.48;;;3.00;99.90;;;;;;5068004;28;19954;-76
2022/11/22 06:59:25;;;;;;;;;;;3.00;99.90;;;;;;5068697;28;20036;-76
2022/11/22 07:01:50;;;;;;;96.47;20.20;;;3.00;99.90;;;;;;5066914;28;19924;-75
2022/11/22 07:04:16;;;;;;;;;;;3.00;99.90;;;;;;5069168;28;20033;-75
2022/11/22 07:06:43;;;;;;;86.72;18.55;;;3.00;99.90;;;;;;5067554;28;20343;-75
2022/11/22 07:09:10;;;;;;;67.68;17.42;;;3.00;99.90;;;;;;5067478;28;20400;-75
2022/11/22 07:11:36;;;;;;;71.25;18.02;;;3.00;99.90;;;;;;5067569;28;20090;-75
2022/11/22 07:14:02;;;;;;;;;;;3.10;99.90;;;;;;5067813;28;20029;-75
2022/11/22 07:16:28;;;;;;;59.70;17.92;;;3.00;99.90;;;;;;5068184;28;19904;-75
2022/11/22 07:18:53;;;;;;;;;;;3.10;99.90;;;;;;5067524;28;20578;-75
2022/11/22 07:21:21;;;;;;;69.90;17.30;;;3.10;99.90;;;;;;5067908;28;20009;-76
2022/11/22 07:23:49;;;;;;;112.55;19.13;;;3.10;99.90;;;;;;5067964;28;20020;-75
2022/11/22 07:26:17;;;;;;;73.72;19.83;;;3.00;99.90;;;;;;5067892;28;20059;-75
2022/11/22 07:28:43;;;;;;;59.13;17.17;;;3.10;99.90;;;;;;5068304;28;20484;-75
2022/11/22 07:31:10;;;;;;;140.35;19.83;;;3.10;99.90;;;;;;5067291;28;20761;-74
2022/11/22 07:33:36;;;;;;;67.32;15.40;;;3.00;99.90;;;;;;5067078;28;20050;-75
2022/11/22 07:36:06;;;;;;;;;;;3.00;99.90;;;;;;5067389;28;20075;-75
2022/11/22 07:38:33;;;;;;;51.10;16.40;;;3.00;99.90;;;;;;5066453;28;19912;-75
2022/11/22 07:40:59;;;;;;;58.55;17.98;;;2.90;99.90;;;;;;5067381;28;20156;-75
2022/11/22 07:43:24;;;;;;;;;;;2.90;99.90;;;;;;5067393;28;20107;-75
2022/11/22 07:45:50;;;;;;;116.50;30.17;;;2.80;99.90;;;;;;5066983;28;19913;-74
2022/11/22 07:48:15;;;;;;;;;;;2.70;99.90;;;;;;5067641;28;20658;-75
2022/11/22 07:50:41;;;;;;;60.50;16.02;;;2.80;99.90;;;;;;5068807;28;19908;-75
2022/11/22 07:53:07;;;;;;;;;;;2.80;99.90;;;;;;5067782;28;20025;-75
2022/11/22 07:55:33;;;;;;;44.30;14.18;;;2.90;99.90;;;;;;5069037;28;19916;-76
2022/11/22 07:57:59;;;;;;;;;;;2.90;99.90;;;;;;5067507;28;20123;-75
2022/11/22 08:00:26;;;;;;;52.50;15.55;;;3.00;99.90;;;;;;5067467;28;20316;-76
2022/11/22 08:02:51;;;;;;;36.00;16.20;;;2.80;99.90;;;;;;5065684;28;20106;-76
2022/11/22 08:05:17;;;;;;;;;;;2.70;99.90;;;;;;5067490;28;20032;-75
2022/11/22 08:07:47;;;;;;;68.10;28.27;;;2.80;99.90;;;;;;5065818;28;19958;-74
2022/11/22 08:10:13;;;;;;;34.35;15.25;;;2.80;99.90;;;;;;5065151;28;20051;-74
2022/11/22 08:12:39;;;;;;;30.05;14.93;;;2.90;99.90;;;;;;5066979;28;20024;-75
2022/11/22 08:15:04;;;;;;;;;;;3.00;99.90;;;;;;5065431;28;20451;-75
2022/11/22 08:17:30;;;;;;;30.50;15.68;;;3.10;99.90;;;;;;5065134;28;20384;-75
2022/11/22 08:19:56;;;;;;;;;;;3.00;99.90;;;;;;5065745;28;20044;-75
2022/11/22 08:22:21;;;;;;;34.60;17.40;;;3.10;99.90;;;;;;5066449;28;19906;-75
2022/11/22 08:24:47;;;;;;;;;;;3.10;99.90;;;;;;5065227;28;20500;-74
2022/11/22 08:27:12;;;;;;;32.15;14.38;;;3.10;99.90;;;;;;5065337;28;20018;-74
2022/11/22 08:29:38;;;;;;;;;;;3.20;99.90;;;;;;5066524;28;20047;-76
2022/11/22 08:32:04;;;;;;;57.38;28.13;;;3.20;99.90;;;;;;5066945;28;19909;-74
2022/11/22 08:34:29;;;;;;;;;;;3.20;99.90;;;;;;5065743;28;20111;-75
2022/11/22 08:36:55;;;;;;;34.25;15.10;;;3.20;99.90;;;;;;5065624;28;19916;-74
2022/11/22 08:39:21;;;;;;;;;;;3.20;99.90;;;;;;5066723;28;20350;-75
2022/11/22 08:41:47;;;;;;;32.58;14.15;;;3.30;99.90;;;;;;5065225;28;20350;-74
2022/11/22 08:44:12;;;;;;;;;;;3.40;99.90;;;;;;5067270;28;20063;-74
2022/11/22 08:46:38;;;;;;;30.45;14.27;;;3.50;99.90;;;;;;5066381;28;19911;-75
2022/11/22 08:49:05;;;;;;;;;;;3.60;99.90;;;;;;5067054;28;20485;-75
2022/11/22 08:51:31;;;;;;;34.03;16.02;;;3.50;99.90;;;;;;5065376;28;20404;-75
2022/11/22 08:53:58;;;;;;;36.63;15.68;;;3.50;99.90;;;;;;5065456;28;20463;-75
2022/11/22 08:56:23;;;;;;;31.17;13.82;;;3.50;99.90;;;;;;5067032;28;20033;-75
2022/11/22 08:58:49;;;;;;;;;;;3.70;99.90;;;;;;5067179;28;20012;-75
2022/11/22 09:01:17;;;;;;;33.58;13.80;;;3.70;99.90;;;;;;5065128;28;20372;-75
2022/11/22 09:03:44;;;;;;;33.13;14.35;;;3.70;99.90;;;;;;5066640;28;20027;-75
2022/11/22 09:06:12;;;;;;;35.95;16.90;;;3.80;99.90;;;;;;5064779;28;20029;-75
2022/11/22 09:08:38;;;;;;;34.08;16.45;;;3.80;99.90;;;;;;5065937;28;20477;-76
2022/11/22 09:11:10;;;;;;;36.63;16.35;;;3.80;99.90;;;;;;5066540;28;20509;-75
2022/11/22 09:13:36;;;;;;;42.13;18.23;;;3.80;99.90;;;;;;5066380;28;20052;-76
2022/11/22 09:16:06;;;;;;;;;;;3.70;99.90;;;;;;5066703;28;20071;-75
2022/11/22 09:18:32;;;;;;;39.08;18.30;;;3.80;99.90;;;;;;5066592;28;19912;-75
2022/11/22 09:21:03;;;;;;;42.60;19.55;;;3.80;99.90;;;;;;5065321;28;20230;-75
2022/11/22 09:23:29;;;;;;;38.75;18.27;;;4.00;99.90;;;;;;5065348;28;20074;-75
2022/11/22 09:26:03;;;;;;;40.20;20.30;;;4.10;99.90;;;;;;5065909;28;20085;-75
2022/11/22 09:28:29;;;;;;;39.03;16.90;;;4.20;99.90;;;;;;5064874;28;20048;-75
2022/11/22 09:30:59;;;;;;;;;;;4.10;99.90;;;;;;5066873;28;20032;-75
2022/11/22 09:33:24;;;;;;;41.50;19.52;;;4.20;99.90;;;;;;5065625;28;19926;-76
2022/11/22 09:35:50;;;;;;;;;;;4.20;99.90;;;;;;5066732;28;20017;-76
2022/11/22 09:38:16;;;;;;;43.15;20.48;;;4.30;99.90;;;;;;5066050;28;19942;-75
2022/11/22 09:40:45;;;;;;;;;;;4.20;99.90;;;;;;5067284;28;20053;-75
2022/11/22 09:43:26;;;;;;;38.58;18.50;;;4.20;99.90;;;;;;5065696;28;19965;-76
2022/11/22 09:46:17;;;;;;;82.38;48.90;;;4.20;99.90;;;;;;5066602;28;20021;-75
2022/11/22 09:49:13;;;;;;;44.83;21.98;;;4.30;99.90;;;;;;5067048;28;20071;-75
2022/11/22 09:51:48;;;;;;;49.42;25.95;;;4.30;99.90;;;;;;5067015;28;20443;-76
2022/11/22 09:54:20;;;;;;;42.45;22.83;;;4.40;99.90;;;;;;5065693;28;20025;-76
2022/11/22 09:56:49;;;;;;;37.20;21.05;;;4.40;99.90;;;;;;5066837;28;20032;-75
2022/11/22 09:59:23;;;;;;;40.05;21.50;;;4.50;99.90;;;;;;5069133;28;20117;-75
2022/11/22 10:02:01;;;;;;;43.38;22.35;;;4.50;99.90;;;;;;5070708;28;20127;-75
2022/11/22 10:04:36;;;;;;;38.90;20.98;;;4.50;99.90;;;;;;5071737;28;20170;-77
2022/11/22 10:07:11;;;;;;;38.78;20.60;;;4.60;99.90;;;;;;5071739;28;20033;-76
2022/11/22 10:10:06;;;;;;;36.65;19.20;;;4.70;99.90;;;;;;5070256;28;20048;-76
2022/11/22 10:12:50;;;;;;;36.33;19.17;;;4.80;99.90;;;;;;5072881;28;20043;-76
2022/11/22 10:15:47;;;;;;;35.17;18.85;;;4.90;99.90;;;;;;5071018;28;20047;-75
2022/11/22 10:18:22;;;;;;;37.63;18.38;;;5.00;99.90;;;;;;5071269;28;20081;-77
2022/11/22 10:20:48;;;;;;;33.17;18.17;;;5.00;99.90;;;;;;5070817;28;20487;-76
2022/11/22 10:23:19;;;;;;;;;;;5.30;99.90;;;;;;5070461;28;20112;-76
2022/11/22 10:25:57;;;;;;;33.30;18.10;;;5.30;99.90;;;;;;5069475;28;19911;-75
2022/11/22 10:28:59;;;;;;;38.97;23.52;;;5.30;99.90;;;;;;5069388;28;20104;-76
2022/11/22 10:31:42;;;;;;;34.25;18.80;;;5.20;99.90;;;;;;5055281;28;20408;-76
2022/11/22 10:34:25;;;;;;;28.13;17.67;;;5.30;99.90;;;;;;5068999;28;20104;-76
2022/11/22 10:37:07;;;;;;;28.23;16.52;;;5.40;99.90;;;;;;5069062;28;20477;-76
2022/11/22 10:40:04;;;;;;;24.90;15.00;;;5.50;99.90;;;;;;5068765;28;20087;-76
2022/11/22 10:42:50;;;;;;;29.73;16.80;;;5.60;99.90;;;;;;5068745;28;20029;-76
2022/11/22 10:46:09;;;;;;;33.10;17.17;;;5.50;99.90;;;;;;5069042;28;20101;-75
2022/11/22 10:48:43;;;;;;;22.13;13.45;;;5.50;99.90;;;;;;5029516;28;20033;-76
2022/11/22 10:51:53;;;;;;;28.25;16.65;;;5.70;99.90;;;;;;5064056;28;20419;-76
2022/11/22 10:54:33;;;;;;;27.98;15.48;;;5.80;99.90;;;;;;5029263;28;20075;-76
2022/11/22 10:57:22;;;;;;;26.17;16.00;;;5.80;99.90;;;;;;5045849;28;20043;-76
2022/11/22 11:00:02;;;;;;;28.25;17.25;;;5.80;99.90;;;;;;5062985;28;20044;-76
2022/11/22 11:02:55;;;;;;;23.00;14.82;;;5.80;99.90;;;;;;5068422;28;20036;-76
2022/11/22 11:05:28;;;;;;;21.23;11.30;;;5.80;99.90;;;;;;5067461;28;20123;-76
2022/11/22 11:07:54;;;;;;;25.35;16.25;;;5.70;99.90;;;;;;5067359;28;20070;-75
2022/11/22 11:10:21;;;;;;;;;;;5.60;99.90;;;;;;5069464;28;20052;-76
2022/11/22 11:12:57;;;;;;;34.72;18.10;;;5.70;99.90;;;;;;5068801;28;19908;-75
2022/11/22 11:15:27;;;;;;;26.13;16.67;;;5.80;99.90;;;;;;5067966;28;20021;-77
2022/11/22 11:18:17;;;;;;;19.80;11.40;;;5.80;99.90;;;;;;5067613;28;20036;-77
2022/11/22 11:20:46;;;;;;;20.42;13.20;;;5.80;99.90;;;;;;5067751;28;20052;-76
2022/11/22 11:23:12;;;;;;;26.75;15.77;;;5.70;99.90;;;;;;5066741;28;20016;-76
2022/11/22 11:25:41;;;;;;;23.42;14.05;;;5.70;99.90;;;;;;5069032;28;20664;-76
2022/11/22 11:28:25;;;;;;;27.70;15.60;;;5.80;99.90;;;;;;5067328;28;20020;-75
2022/11/22 11:31:00;;;;;;;22.45;13.68;;;5.70;99.90;;;;;;5068615;28;20119;-76
2022/11/22 11:33:36;;;;;;;23.77;14.70;;;5.70;99.90;;;;;;5067243;28;20032;-78
2022/11/22 11:36:13;;;;;;;21.77;13.18;;;5.80;99.90;;;;;;5068424;28;20523;-76
2022/11/22 11:38:49;;;;;;;24.50;14.98;;;5.80;99.90;;;;;;5068817;28;20032;-77
2022/11/22 11:41:22;;;;;;;25.83;15.50;;;5.60;99.90;;;;;;5067536;28;20076;-76
2022/11/22 11:43:49;;;;;;;22.80;13.55;;;5.50;99.90;;;;;;5068780;28;20027;-76
2022/11/22 11:46:21;;;;;;;28.80;15.77;;;5.50;99.90;;;;;;5068180;28;20429;-75
2022/11/22 11:49:07;;;;;;;22.45;12.30;;;5.40;99.90;;;;;;5066711;28;20051;-75
2022/11/22 11:51:43;;;;;;;23.17;11.40;;;5.40;99.90;;;;;;5065835;28;20077;-75
2022/11/22 11:54:13;;;;;;;17.45;8.73;;;5.40;99.90;;;;;;5067554;28;20090;-78
2022/11/22 11:56:44;;;;;;;20.52;13.38;;;5.40;99.90;;;;;;5067814;28;20052;-75
2022/11/22 11:59:22;;;;;;;25.50;14.77;;;5.30;99.90;;;;;;5065589;28;20037;-78
2022/11/22 12:01:54;;;;;;;22.38;14.15;;;5.30;99.90;;;;;;5067000;28;20568;-76
2022/11/22 12:04:25;;;;;;;20.80;12.65;;;5.30;99.90;;;;;;5068952;28;20471;-75
2022/11/22 12:07:01;;;;;;;20.35;11.70;;;5.40;99.90;;;;;;5067346;28;20052;-75
2022/11/22 12:09:42;;;;;;;24.95;13.43;;;5.40;99.90;;;;;;5066733;28;20032;-76
2022/11/22 12:12:25;;;;;;;16.25;8.00;;;5.40;99.90;;;;;;5068763;28;20033;-76
2022/11/22 12:15:05;;;;;;;23.63;13.07;;;5.50;99.90;;;;;;5066892;28;20128;-77
2022/11/22 12:17:38;;;;;;;21.95;11.63;;;5.40;99.90;;;;;;5067331;28;20043;-78
2022/11/22 12:20:16;;;;;;;20.77;11.32;;;5.40;99.90;;;;;;5068435;28;20047;-76
2022/11/22 12:22:56;;;;;;;21.85;11.65;;;5.50;99.90;;;;;;5066560;28;20392;-76
2022/11/22 12:25:25;;;;;;;19.65;12.05;;;5.50;99.90;;;;;;5067504;28;20029;-75
2022/11/22 12:27:50;;;;;;;17.77;9.75;;;5.60;99.90;;;;;;5067416;28;20615;-76
2022/11/22 12:30:16;;;;;;;;;;;5.70;99.90;;;;;;5067005;28;20139;-75
2022/11/22 12:32:51;;;;;;;20.75;11.15;;;5.70;99.90;;;;;;5069206;28;20061;-76
2022/11/22 12:35:22;;;;;;;19.48;10.85;;;5.80;99.90;;;;;;5066375;28;20029;-75
2022/11/22 12:38:02;;;;;;;17.23;11.30;;;5.80;99.90;;;;;;5067436;28;20481;-76
2022/11/22 12:40:49;;;;;;;18.02;10.48;;;5.70;99.90;;;;;;5069565;28;20063;-76
2022/11/22 12:43:26;;;;;;;23.38;11.55;;;5.70;99.90;;;;;;5069019;28;20831;-76
2022/11/22 12:46:07;;;;;;;22.55;12.68;;;5.70;99.90;;;;;;5069237;28;20063;-75
2022/11/22 12:48:48;;;;;;;17.02;9.52;;;5.80;99.90;;;;;;5068055;28;20052;-76
2022/11/22 12:51:25;;;;;;;19.35;10.43;;;5.90;99.90;;;;;;5065548;28;20025;-75
2022/11/22 12:53:54;;;;;;;19.60;10.73;;;5.80;99.90;;;;;;5065330;28;20024;-75
2022/11/22 12:56:33;;;;;;;22.35;12.05;;;5.80;99.90;;;;;;5065097;28;20374;-76
2022/11/22 12:59:10;;;;;;;18.35;10.57;;;5.70;99.90;;;;;;5065749;28;20029;-75
2022/11/22 13:01:41;;;;;;;17.67;9.32;;;5.60;99.90;;;;;;5065246;28;20062;-75
2022/11/22 13:04:10;;;;;;;17.38;9.68;;;5.60;99.90;;;;;;5065629;28;20036;-75
2022/11/22 13:06:50;;;;;;;22.77;10.50;;;5.50;99.90;;;;;;5065111;28;20371;-75
2022/11/22 13:09:40;;;;;;;18.70;9.18;;;5.50;99.90;;;;;;5066252;28;20135;-76
2022/11/22 13:12:13;;;;;;;17.17;9.20;;;5.60;99.90;;;;;;5066364;28;20822;-76
2022/11/22 13:14:46;;;;;;;17.40;9.43;;;5.60;99.90;;;;;;5066579;28;20020;-76
2022/11/22 13:17:16;;;;;;;15.48;9.15;;;5.60;99.90;;;;;;5067015;28;20028;-75
2022/11/22 13:19:55;;;;;;;18.10;9.25;;;5.60;99.90;;;;;;5066498;28;20131;-76
2022/11/22 13:22:46;;;;;;;15.05;8.60;;;5.50;99.90;;;;;;5064913;28;20040;-75
2022/11/22 13:25:18;;;;;;;15.70;8.70;;;5.60;99.90;;;;;;5066878;28;20070;-75
2022/11/22 13:27:49;;;;;;;13.20;7.75;;;5.60;99.90;;;;;;5066732;28;20129;-75
2022/11/22 13:30:19;;;;;;;15.77;9.55;;;5.70;99.90;;;;;;5065021;28;20024;-75
2022/11/22 13:32:50;;;;;;;14.63;8.02;;;5.60;99.90;;;;;;5065873;28;20078;-75